createdAt,value
2023-03-16T00:02:07.224Z,0.93
2023-03-16T00:04:37.420Z,0.83
2023-03-16T00:07:05.867Z,0.90
2023-03-16T00:09:33.814Z,0.90
2023-03-16T00:12:03.634Z,0.90
2023-03-16T00:14:32.613Z,1.10
2023-03-16T00:17:02.131Z,0.80
2023-03-16T00:19:29.984Z,0.90
2023-03-16T00:21:57.812Z,1.07
2023-03-16T00:24:25.736Z,0.50
2023-03-16T00:26:54.834Z,1.10
2023-03-16T00:29:23.507Z,0.70
2023-03-16T00:31:52.259Z,0.90
2023-03-16T00:34:22.858Z,0.80
2023-03-16T00:36:50.859Z,1.00
2023-03-16T00:39:18.716Z,0.80
2023-03-16T00:41:46.590Z,1.00
2023-03-16T00:44:14.443Z,1.10
2023-03-16T00:46:42.761Z,0.80
2023-03-16T00:49:10.629Z,0.73
2023-03-16T00:51:39.860Z,0.97
2023-03-16T00:54:07.718Z,1.10
2023-03-16T00:56:35.578Z,0.90
2023-03-16T00:59:03.457Z,0.90
2023-03-16T01:01:32.758Z,0.90
2023-03-16T01:04:01.670Z,1.10
2023-03-16T01:06:30.237Z,0.60
2023-03-16T01:08:59.483Z,0.53
2023-03-16T01:11:27.335Z,0.70
2023-03-16T01:13:55.261Z,1.00
2023-03-16T01:16:24.143Z,0.80
2023-03-16T01:18:52.536Z,1.17
2023-03-16T01:21:21.600Z,0.87
2023-03-16T01:23:49.454Z,1.07
2023-03-16T01:26:18.763Z,0.60
2023-03-16T01:28:46.751Z,0.90
2023-03-16T01:31:16.260Z,0.60
2023-03-16T01:33:44.712Z,0.80
2023-03-16T01:36:14.654Z,1.13
2023-03-16T01:38:42.697Z,0.83
2023-03-16T01:41:11.111Z,0.90
2023-03-16T01:43:41.570Z,1.00
2023-03-16T01:46:22.536Z,0.83
2023-03-16T01:48:56.374Z,0.70
2023-03-16T01:51:26.885Z,0.87
2023-03-16T01:53:58.842Z,1.00
2023-03-16T01:56:30.621Z,0.90
2023-03-16T01:59:02.663Z,1.00
2023-03-16T02:01:30.740Z,0.90
2023-03-16T02:04:03.731Z,0.83
2023-03-16T02:06:33.090Z,1.20
2023-03-16T02:09:01.608Z,0.77
2023-03-16T02:11:29.701Z,1.33
2023-03-16T02:14:04.217Z,0.80
2023-03-16T02:16:32.305Z,0.80
2023-03-16T02:19:00.953Z,1.00
2023-03-16T02:21:34.809Z,1.00
2023-03-16T02:24:04.490Z,1.20
2023-03-16T02:26:39.476Z,1.13
2023-03-16T02:29:17.919Z,0.80
2023-03-16T02:31:47.926Z,1.10
2023-03-16T02:34:18.555Z,1.07
2023-03-16T02:36:48.061Z,1.10
2023-03-16T02:39:16.015Z,0.93
2023-03-16T02:41:44.244Z,1.10
2023-03-16T02:44:16.427Z,1.00
2023-03-16T02:46:45.847Z,1.20
2023-03-16T02:49:18.756Z,0.83
2023-03-16T02:51:48.098Z,0.83
2023-03-16T02:54:16.020Z,1.00
2023-03-16T02:56:43.869Z,1.03
2023-03-16T02:59:12.077Z,1.10
2023-03-16T03:01:39.968Z,1.10
2023-03-16T03:04:08.315Z,1.40
2023-03-16T03:06:37.543Z,0.90
2023-03-16T03:09:06.335Z,1.10
2023-03-16T03:11:34.188Z,0.93
2023-03-16T03:14:02.040Z,1.03
2023-03-16T03:16:30.000Z,1.00
2023-03-16T03:18:58.300Z,1.30
2023-03-16T03:21:26.472Z,0.90
2023-03-16T03:23:55.986Z,1.07
2023-03-16T03:26:24.583Z,1.10
2023-03-16T03:28:53.466Z,1.00
2023-03-16T03:31:23.443Z,0.80
2023-03-16T03:33:51.452Z,1.00
2023-03-16T03:36:19.328Z,1.23
2023-03-16T03:38:49.537Z,1.00
2023-03-16T03:41:18.769Z,0.70
2023-03-16T03:43:46.650Z,1.00
2023-03-16T03:46:14.681Z,0.70
2023-03-16T03:48:42.810Z,0.70
2023-03-16T03:51:10.748Z,0.97
2023-03-16T03:53:38.625Z,0.80
2023-03-16T03:56:07.167Z,0.70
2023-03-16T03:58:36.642Z,0.70
2023-03-16T04:01:04.539Z,1.00
2023-03-16T04:03:32.410Z,0.80
2023-03-16T04:06:00.890Z,0.80
2023-03-16T04:08:29.069Z,0.87
2023-03-16T04:10:56.997Z,1.10
2023-03-16T04:13:24.871Z,0.97
2023-03-16T04:15:59.041Z,0.63
2023-03-16T04:18:27.200Z,0.80
2023-03-16T04:20:55.274Z,1.10
2023-03-16T04:23:24.909Z,1.10
2023-03-16T04:25:52.830Z,0.83
2023-03-16T04:28:20.726Z,0.80
2023-03-16T04:30:48.621Z,0.60
2023-03-16T04:33:17.864Z,0.63
2023-03-16T04:35:46.363Z,0.77
2023-03-16T04:38:14.776Z,0.70
2023-03-16T04:40:42.644Z,0.60
2023-03-16T04:43:10.505Z,0.67
2023-03-16T04:45:38.398Z,0.50
2023-03-16T04:48:06.833Z,0.60
2023-03-16T04:50:36.140Z,0.80
2023-03-16T04:53:04.418Z,0.77
2023-03-16T04:55:32.425Z,0.90
2023-03-16T04:58:00.349Z,0.80
2023-03-16T05:00:29.116Z,0.40
2023-03-16T05:02:57.260Z,0.40
2023-03-16T05:05:25.313Z,0.57
2023-03-16T05:07:56.609Z,0.50
2023-03-16T05:10:24.514Z,0.53
2023-03-16T05:12:52.334Z,0.50
2023-03-16T05:15:20.384Z,0.57
2023-03-16T05:17:48.255Z,0.60
2023-03-16T05:20:16.699Z,0.50
2023-03-16T05:22:46.424Z,0.90
2023-03-16T05:25:16.174Z,0.50
2023-03-16T05:27:44.179Z,0.50
2023-03-16T05:30:13.446Z,0.63
2023-03-16T05:32:41.728Z,0.70
2023-03-16T05:35:13.247Z,0.67
2023-03-16T05:37:41.605Z,0.60
2023-03-16T05:40:17.027Z,0.37
2023-03-16T05:42:47.959Z,0.67
2023-03-16T05:45:17.570Z,0.60
2023-03-16T05:47:45.649Z,0.70
2023-03-16T05:50:16.849Z,0.40
2023-03-16T05:52:45.577Z,0.40
2023-03-16T05:55:18.576Z,0.53
2023-03-16T05:57:47.821Z,0.50
2023-03-16T06:00:18.089Z,0.50
2023-03-16T06:02:47.975Z,0.50
2023-03-16T06:05:16.553Z,0.60
2023-03-16T06:07:44.446Z,0.40
2023-03-16T06:10:13.706Z,0.70
2023-03-16T06:12:42.262Z,0.67
2023-03-16T06:15:12.607Z,0.47
2023-03-16T06:17:41.367Z,0.57
2023-03-16T06:20:11.571Z,0.40
2023-03-16T06:22:39.884Z,0.40
2023-03-16T06:25:09.814Z,0.70
2023-03-16T06:27:38.217Z,0.40
2023-03-16T06:30:07.064Z,0.40
2023-03-16T06:32:37.870Z,0.40
2023-03-16T06:35:06.462Z,0.50
2023-03-16T06:37:34.486Z,0.40
2023-03-16T06:40:02.511Z,0.40
2023-03-16T06:42:30.384Z,0.40
2023-03-16T06:44:58.288Z,0.30
2023-03-16T06:47:27.252Z,0.47
2023-03-16T06:49:56.543Z,0.40
2023-03-16T06:52:24.447Z,0.40
2023-03-16T06:54:52.478Z,0.60
2023-03-16T06:57:20.405Z,0.40
2023-03-16T06:59:48.243Z,0.30
2023-03-16T07:02:16.994Z,0.60
2023-03-16T07:04:45.002Z,0.30
2023-03-16T07:07:14.340Z,0.40
2023-03-16T07:09:42.406Z,0.30
2023-03-16T07:12:10.604Z,0.40
2023-03-16T07:14:38.943Z,0.40
2023-03-16T07:17:07.477Z,0.40
2023-03-16T07:19:35.364Z,0.30
2023-03-16T07:22:03.929Z,0.50
2023-03-16T07:24:33.493Z,0.37
2023-03-16T07:27:01.820Z,0.40
2023-03-16T07:29:29.718Z,0.30
2023-03-16T07:31:57.647Z,0.40
2023-03-16T07:34:25.505Z,0.40
2023-03-16T07:36:53.540Z,0.30
2023-03-16T07:39:21.474Z,0.37
2023-03-16T07:41:51.260Z,0.40
2023-03-16T07:44:19.250Z,0.40
2023-03-16T07:46:47.155Z,0.40
2023-03-16T07:49:16.670Z,0.40
2023-03-16T07:51:44.593Z,0.37
2023-03-16T07:54:13.893Z,0.40
2023-03-16T07:56:48.971Z,0.27
2023-03-16T07:59:20.868Z,0.40
2023-03-16T08:01:49.228Z,0.30
2023-03-16T08:04:17.081Z,0.40
2023-03-16T08:06:45.383Z,0.40
2023-03-16T08:09:14.377Z,0.47
2023-03-16T08:11:42.751Z,0.50
2023-03-16T08:14:10.660Z,0.40
2023-03-16T08:16:39.897Z,0.40
2023-03-16T08:19:07.778Z,0.40
2023-03-16T08:21:45.792Z,0.40
2023-03-16T08:24:24.031Z,0.30
2023-03-16T08:26:51.924Z,0.37
2023-03-16T08:29:21.101Z,0.40
2023-03-16T08:31:50.388Z,0.30
2023-03-16T08:34:18.739Z,0.40
2023-03-16T08:36:46.693Z,0.40
2023-03-16T08:39:15.554Z,0.40
2023-03-16T08:41:43.593Z,0.37
2023-03-16T08:44:12.882Z,0.40
2023-03-16T08:46:42.269Z,0.27
2023-03-16T08:49:13.549Z,0.30
2023-03-16T08:51:43.876Z,0.40
2023-03-16T08:54:12.839Z,0.40
2023-03-16T08:56:44.896Z,0.30
2023-03-16T08:59:23.602Z,0.30
2023-03-16T09:01:57.113Z,0.30
2023-03-16T09:04:26.552Z,0.40
2023-03-16T09:07:07.825Z,0.37
2023-03-16T09:09:36.722Z,0.30
2023-03-16T09:12:05.855Z,0.40
2023-03-16T09:14:34.323Z,0.40
2023-03-16T09:17:02.201Z,0.40
2023-03-16T09:19:47.847Z,0.30
2023-03-16T09:22:18.439Z,0.40
2023-03-16T09:24:46.452Z,0.43
2023-03-16T09:27:16.310Z,0.30
2023-03-16T09:29:45.265Z,0.30
2023-03-16T09:32:14.177Z,0.40
2023-03-16T09:34:44.730Z,0.40
2023-03-16T09:37:12.725Z,0.97
2023-03-16T09:39:40.610Z,0.27
2023-03-16T09:42:19.715Z,0.30
2023-03-16T09:44:57.596Z,0.30
2023-03-16T09:47:28.789Z,0.27
2023-03-16T09:50:01.335Z,0.30
2023-03-16T09:52:41.257Z,0.40
2023-03-16T09:55:17.508Z,0.30
2023-03-16T09:57:47.365Z,0.20
2023-03-16T10:00:21.113Z,0.20
2023-03-16T10:03:11.048Z,0.20
2023-03-16T10:05:40.911Z,0.30
2023-03-16T10:08:14.231Z,0.20
2023-03-16T10:11:07.272Z,0.30
2023-03-16T10:13:41.579Z,0.50
2023-03-16T10:16:14.923Z,0.30
2023-03-16T10:18:45.942Z,0.20
2023-03-16T10:21:18.398Z,0.33
2023-03-16T10:23:48.558Z,0.30
2023-03-16T10:26:19.739Z,0.20
2023-03-16T10:28:47.944Z,0.30
2023-03-16T10:31:19.414Z,0.30
2023-03-16T10:33:49.464Z,0.20
2023-03-16T10:36:27.150Z,0.30
2023-03-16T10:38:58.760Z,0.40
2023-03-16T10:41:30.640Z,0.40
2023-03-16T10:43:59.789Z,0.30
2023-03-16T10:46:29.556Z,0.30
2023-03-16T10:49:01.157Z,0.23
2023-03-16T10:51:32.087Z,0.30
2023-03-16T10:54:10.795Z,0.30
2023-03-16T10:56:40.242Z,0.30
2023-03-16T10:59:17.088Z,0.30
2023-03-16T11:01:49.977Z,0.20
2023-03-16T11:04:20.385Z,0.27
2023-03-16T11:06:56.904Z,0.20
2023-03-16T11:09:27.774Z,0.30
2023-03-16T11:11:55.736Z,0.20
2023-03-16T11:14:28.387Z,0.30
2023-03-16T11:17:04.295Z,0.30
2023-03-16T11:19:34.763Z,0.20
2023-03-16T11:22:11.907Z,0.20
2023-03-16T11:24:47.727Z,0.30
2023-03-16T11:27:23.768Z,0.20
2023-03-16T11:30:15.823Z,0.20
2023-03-16T11:32:49.060Z,0.30
2023-03-16T11:35:20.541Z,0.40
2023-03-16T11:38:06.229Z,0.30
2023-03-16T11:40:45.323Z,0.20
2023-03-16T11:43:50.140Z,0.30
2023-03-16T11:46:22.620Z,0.30
2023-03-16T11:49:17.629Z,0.30
2023-03-16T11:51:53.968Z,0.20
2023-03-16T11:54:41.400Z,0.30
2023-03-16T11:57:23.642Z,0.20
2023-03-16T12:00:06.866Z,0.30
2023-03-16T12:02:45.934Z,0.20
2023-03-16T12:05:56.475Z,0.40
2023-03-16T12:08:40.097Z,0.30
2023-03-16T12:11:14.787Z,0.30
2023-03-16T12:13:58.367Z,0.30
2023-03-16T12:16:39.074Z,0.30
2023-03-16T12:19:21.883Z,0.20
2023-03-16T12:22:02.287Z,0.30
2023-03-16T12:24:36.418Z,0.40
2023-03-16T12:27:06.996Z,0.20
2023-03-16T12:29:41.420Z,0.30
2023-03-16T12:32:13.403Z,0.30
2023-03-16T12:34:45.724Z,0.30
2023-03-16T12:37:29.135Z,0.30
2023-03-16T12:40:19.598Z,0.40
2023-03-16T12:43:11.002Z,0.30
2023-03-16T12:45:44.473Z,0.30
2023-03-16T12:48:21.804Z,0.30
2023-03-16T12:50:52.200Z,0.30
2023-03-16T12:53:28.447Z,0.30
2023-03-16T12:55:57.953Z,0.40
2023-03-16T12:58:28.624Z,0.30
2023-03-16T13:00:59.529Z,0.20
2023-03-16T13:03:28.431Z,0.30
2023-03-16T13:05:59.476Z,0.20
2023-03-16T13:08:28.901Z,0.40
2023-03-16T13:11:04.985Z,0.20
2023-03-16T13:13:34.724Z,0.30
2023-03-16T13:16:07.175Z,0.30
2023-03-16T13:18:39.127Z,0.30
2023-03-16T13:21:35.800Z,0.20
2023-03-16T13:24:15.848Z,0.30
2023-03-16T13:26:48.446Z,0.27
2023-03-16T13:29:25.567Z,0.30
2023-03-16T13:31:54.568Z,0.20
2023-03-16T13:34:25.271Z,0.20
2023-03-16T13:36:57.863Z,0.40
2023-03-16T13:39:28.415Z,0.20
2023-03-16T13:42:01.001Z,0.20
2023-03-16T13:44:31.867Z,0.20
2023-03-16T13:47:04.993Z,0.27
2023-03-16T13:49:32.977Z,0.20
2023-03-16T13:52:01.044Z,0.20
2023-03-16T13:54:30.733Z,0.20
2023-03-16T13:57:00.487Z,0.30
2023-03-16T13:59:30.278Z,0.30
2023-03-16T14:02:00.031Z,0.27
2023-03-16T14:04:30.675Z,0.23
2023-03-16T14:07:01.801Z,0.30
2023-03-16T14:09:34.446Z,0.30
2023-03-16T14:12:03.572Z,0.30
2023-03-16T14:14:39.282Z,0.23
2023-03-16T14:17:12.313Z,0.30
2023-03-16T14:19:44.419Z,0.30
2023-03-16T14:22:16.342Z,0.30
2023-03-16T14:24:46.808Z,0.20
2023-03-16T14:27:21.734Z,0.40
2023-03-16T14:29:57.516Z,0.30
2023-03-16T14:32:29.317Z,0.23
2023-03-16T14:35:15.087Z,0.30
2023-03-16T14:37:43.642Z,0.40
2023-03-16T14:40:24.616Z,0.30
2023-03-16T14:42:54.089Z,0.20
2023-03-16T14:45:23.782Z,0.20
2023-03-16T14:47:53.723Z,0.30
2023-03-16T14:50:25.094Z,0.27
2023-03-16T14:52:57.210Z,0.30
2023-03-16T14:55:25.688Z,0.20
2023-03-16T14:57:54.077Z,0.30
2023-03-16T15:00:23.993Z,0.30
2023-03-16T15:03:00.177Z,0.27
2023-03-16T15:05:35.206Z,0.30
2023-03-16T15:08:05.561Z,0.20
2023-03-16T15:10:35.786Z,0.30
2023-03-16T15:13:13.087Z,0.30
2023-03-16T15:15:43.868Z,0.30
2023-03-16T15:18:12.079Z,0.30
2023-03-16T15:20:43.459Z,0.30
2023-03-16T15:23:14.987Z,0.30
2023-03-16T15:25:45.029Z,0.30
2023-03-16T15:28:17.283Z,0.40
2023-03-16T15:30:48.677Z,0.30
2023-03-16T15:33:17.045Z,0.30
2023-03-16T15:35:46.728Z,0.30
2023-03-16T15:38:17.972Z,0.30
2023-03-16T15:40:47.947Z,0.30
2023-03-16T15:43:17.955Z,0.30
2023-03-16T15:45:48.158Z,0.30
2023-03-16T15:48:17.060Z,0.30
2023-03-16T15:50:52.729Z,0.30
2023-03-16T15:53:30.633Z,0.30
2023-03-16T15:56:03.070Z,0.20
2023-03-16T15:58:33.111Z,0.30
2023-03-16T16:01:03.682Z,0.30
2023-03-16T16:03:32.177Z,0.30
2023-03-16T16:06:00.298Z,0.20
2023-03-16T16:08:28.409Z,0.20
2023-03-16T16:10:57.321Z,0.30
2023-03-16T16:13:37.757Z,0.20
2023-03-16T16:16:14.419Z,0.30
2023-03-16T16:18:42.851Z,0.30
2023-03-16T16:21:17.761Z,0.27
2023-03-16T16:23:45.775Z,0.30
2023-03-16T16:26:26.284Z,0.30
2023-03-16T16:28:55.909Z,0.20
2023-03-16T16:31:25.609Z,0.20
2023-03-16T16:33:53.885Z,0.30
2023-03-16T16:36:25.176Z,0.30
2023-03-16T16:38:56.340Z,0.40
2023-03-16T16:41:27.953Z,0.30
2023-03-16T16:43:56.445Z,0.30
2023-03-16T16:46:27.403Z,0.40
2023-03-16T16:48:59.572Z,0.50
2023-03-16T16:51:29.662Z,0.50
2023-03-16T16:53:59.410Z,0.30
2023-03-16T16:56:30.688Z,0.30
2023-03-16T16:59:00.430Z,0.30
2023-03-16T17:01:32.897Z,0.40
2023-03-16T17:04:01.243Z,0.30
2023-03-16T17:06:29.786Z,0.27
2023-03-16T17:08:57.686Z,0.30
2023-03-16T17:11:29.083Z,0.20
2023-03-16T17:13:59.223Z,0.30
2023-03-16T17:16:27.741Z,0.40
2023-03-16T17:18:57.461Z,0.30
2023-03-16T17:21:28.482Z,0.43
2023-03-16T17:23:57.321Z,0.40
2023-03-16T17:26:28.803Z,0.30
2023-03-16T17:28:59.089Z,0.30
2023-03-16T17:31:31.055Z,0.40
2023-03-16T17:34:02.298Z,0.30
2023-03-16T17:36:31.293Z,0.30
2023-03-16T17:39:02.003Z,0.40
2023-03-16T17:41:32.948Z,0.40
2023-03-16T17:44:11.980Z,0.40
2023-03-16T17:46:39.937Z,0.30
2023-03-16T17:49:14.217Z,0.40
2023-03-16T17:51:43.360Z,0.30
2023-03-16T17:54:11.712Z,0.47
2023-03-16T17:56:40.650Z,0.40
2023-03-16T17:59:16.295Z,0.40
2023-03-16T18:01:45.769Z,0.43
2023-03-16T18:04:19.308Z,0.50
2023-03-16T18:06:48.125Z,0.40
2023-03-16T18:09:16.819Z,0.40
2023-03-16T18:11:47.592Z,0.40
2023-03-16T18:14:25.267Z,0.40
2023-03-16T18:16:54.472Z,0.30
2023-03-16T18:19:25.653Z,0.40
2023-03-16T18:21:54.570Z,0.40
2023-03-16T18:24:25.687Z,0.30
2023-03-16T18:26:53.785Z,0.43
2023-03-16T18:29:22.373Z,0.50
2023-03-16T18:31:51.787Z,0.40
2023-03-16T18:34:24.693Z,0.40
2023-03-16T18:36:54.830Z,0.30
2023-03-16T18:39:23.285Z,0.30
2023-03-16T18:41:51.256Z,0.33
2023-03-16T18:44:21.227Z,0.40
2023-03-16T18:46:50.498Z,0.50
2023-03-16T18:49:21.084Z,0.30
2023-03-16T18:51:52.280Z,0.47
2023-03-16T18:54:22.167Z,0.40
2023-03-16T18:56:50.071Z,0.40
2023-03-16T18:59:18.182Z,0.50
2023-03-16T19:01:47.154Z,0.40
2023-03-16T19:04:21.423Z,0.30
2023-03-16T19:06:53.619Z,0.50
2023-03-16T19:09:23.749Z,0.30
2023-03-16T19:11:52.087Z,0.40
2023-03-16T19:14:24.057Z,0.40
2023-03-16T19:16:52.555Z,0.40
2023-03-16T19:19:21.925Z,0.40
2023-03-16T19:21:53.758Z,0.30
2023-03-16T19:24:26.464Z,0.40
2023-03-16T19:26:55.503Z,0.40
2023-03-16T19:29:30.816Z,0.40
2023-03-16T19:34:43.964Z,0.50
2023-03-16T19:37:15.850Z,0.30
2023-03-16T19:39:44.990Z,0.30
2023-03-16T19:42:22.198Z,0.33
2023-03-16T19:44:51.734Z,0.40
2023-03-16T19:47:29.503Z,0.40
2023-03-16T19:49:58.597Z,0.50
2023-03-16T19:52:31.309Z,0.30
2023-03-16T19:54:59.596Z,0.30
2023-03-16T19:57:29.095Z,0.50
2023-03-16T19:59:58.466Z,0.40
2023-03-16T20:02:28.482Z,0.30
2023-03-16T20:04:56.719Z,0.33
2023-03-16T20:07:24.900Z,0.30
2023-03-16T20:09:54.174Z,0.33
2023-03-16T20:12:24.876Z,0.40
2023-03-16T20:14:53.750Z,0.50
2023-03-16T20:17:23.842Z,0.83
2023-03-16T20:19:53.002Z,0.40
2023-03-16T20:22:23.432Z,0.30
2023-03-16T20:24:51.355Z,0.30
2023-03-16T20:27:21.522Z,0.43
2023-03-16T20:29:50.526Z,0.40
2023-03-16T20:32:21.859Z,0.30
2023-03-16T20:34:51.133Z,0.43
2023-03-16T20:37:24.654Z,0.40
2023-03-16T20:39:53.758Z,2.57
2023-03-16T20:42:25.807Z,0.40
2023-03-16T20:44:53.869Z,0.30
2023-03-16T20:47:24.404Z,0.40
2023-03-16T20:49:53.767Z,0.30
2023-03-16T20:52:24.028Z,0.30
2023-03-16T20:54:52.410Z,0.30
2023-03-16T20:57:23.750Z,0.40
2023-03-16T20:59:54.565Z,0.40
2023-03-16T21:02:28.145Z,0.30
2023-03-16T21:04:56.507Z,0.33
2023-03-16T21:07:24.470Z,0.33
2023-03-16T21:09:52.490Z,0.40
2023-03-16T21:12:27.897Z,0.50
2023-03-16T21:14:57.129Z,0.40
2023-03-16T21:17:34.339Z,0.37
2023-03-16T21:20:02.313Z,0.30
2023-03-16T21:22:32.177Z,0.30
2023-03-16T21:25:00.371Z,0.40
2023-03-16T21:27:31.956Z,0.43
2023-03-16T21:30:04.108Z,0.50
2023-03-16T21:32:32.098Z,0.30
2023-03-16T21:35:00.124Z,0.30
2023-03-16T21:37:28.342Z,0.47
2023-03-16T21:39:56.459Z,0.30
2023-03-16T21:42:24.363Z,0.63
2023-03-16T21:44:53.612Z,0.40
2023-03-16T21:47:26.124Z,0.33
2023-03-16T21:49:54.750Z,0.47
2023-03-16T21:52:25.252Z,0.47
2023-03-16T21:54:53.707Z,0.30
2023-03-16T21:57:21.773Z,0.40
2023-03-16T21:59:50.191Z,0.33
2023-03-16T22:02:22.554Z,0.40
2023-03-16T22:04:51.020Z,0.40
2023-03-16T22:07:19.444Z,0.43
2023-03-16T22:09:47.354Z,0.50
2023-03-16T22:12:15.780Z,0.40
2023-03-16T22:14:43.704Z,0.50
2023-03-16T22:17:22.613Z,0.40
2023-03-16T22:19:50.539Z,0.20
2023-03-16T22:22:18.918Z,0.33
2023-03-16T22:24:47.426Z,0.30
2023-03-16T22:27:19.019Z,0.40
2023-03-16T22:29:46.979Z,0.30
2023-03-16T22:32:19.056Z,0.40
2023-03-16T22:34:50.359Z,0.37
2023-03-16T22:37:21.364Z,0.33
2023-03-16T22:39:49.821Z,0.30
2023-03-16T22:42:26.299Z,0.50
2023-03-16T22:44:54.640Z,0.33
2023-03-16T22:47:23.230Z,0.40
2023-03-16T22:49:53.655Z,0.30
2023-03-16T22:52:25.978Z,0.40
2023-03-16T22:54:54.081Z,0.40
2023-03-16T22:57:22.000Z,0.40
2023-03-16T22:59:51.257Z,0.40
2023-03-16T23:02:22.135Z,0.30
2023-03-16T23:04:50.033Z,0.43
2023-03-16T23:07:19.638Z,0.40
2023-03-16T23:09:49.287Z,0.50
2023-03-16T23:12:20.697Z,0.50
2023-03-16T23:14:48.785Z,0.50
2023-03-16T23:17:18.647Z,0.50
2023-03-16T23:19:47.858Z,0.40
2023-03-16T23:22:16.264Z,0.30
2023-03-16T23:24:45.680Z,0.50
2023-03-16T23:27:18.337Z,0.50
2023-03-16T23:29:46.575Z,0.33
2023-03-16T23:32:15.681Z,0.40
2023-03-16T23:34:43.584Z,0.40
2023-03-16T23:37:11.938Z,0.50
2023-03-16T23:39:39.823Z,0.40
2023-03-16T23:42:09.528Z,0.40
2023-03-16T23:44:37.471Z,0.37
2023-03-16T23:47:05.446Z,0.30
2023-03-16T23:49:37.302Z,0.63
2023-03-16T23:52:05.562Z,0.50
2023-03-16T23:54:33.915Z,3.13
2023-03-16T23:57:02.046Z,0.40
2023-03-16T23:59:31.333Z,0.40
